sensor_id;sensor_type;location;lat;lon;timestamp;temperature;humidity
48208;DHT22;33997;53.278;9.708;2024-01-30T00:01:15;4.10;91.00
48208;DHT22;33997;53.278;9.708;2024-01-30T00:03:41;4.00;90.90
48208;DHT22;33997;53.278;9.708;2024-01-30T00:06:07;3.90;91.10
48208;DHT22;33997;53.278;9.708;2024-01-30T00:08:33;4.00;91.10
48208;DHT22;33997;53.278;9.708;2024-01-30T00:10:58;4.00;91.20
48208;DHT22;33997;53.278;9.708;2024-01-30T00:13:24;3.90;91.10
48208;DHT22;33997;53.278;9.708;2024-01-30T00:15:49;4.00;91.50
48208;DHT22;33997;53.278;9.708;2024-01-30T00:18:15;4.10;91.60
48208;DHT22;33997;53.278;9.708;2024-01-30T00:20:40;4.20;91.00
48208;DHT22;33997;53.278;9.708;2024-01-30T00:23:06;4.30;91.10
48208;DHT22;33997;53.278;9.708;2024-01-30T00:25:31;4.40;90.60
48208;DHT22;33997;53.278;9.708;2024-01-30T00:27:58;4.40;90.60
48208;DHT22;33997;53.278;9.708;2024-01-30T00:30:24;4.60;90.40
48208;DHT22;33997;53.278;9.708;2024-01-30T00:32:49;4.40;90.20
48208;DHT22;33997;53.278;9.708;2024-01-30T00:35:14;4.50;90.20
48208;DHT22;33997;53.278;9.708;2024-01-30T00:37:40;4.40;90.30
48208;DHT22;33997;53.278;9.708;2024-01-30T00:40:06;4.40;90.30
48208;DHT22;33997;53.278;9.708;2024-01-30T00:42:31;4.40;90.40
48208;DHT22;33997;53.278;9.708;2024-01-30T00:44:58;4.40;90.50
48208;DHT22;33997;53.278;9.708;2024-01-30T00:47:23;4.50;90.40
48208;DHT22;33997;53.278;9.708;2024-01-30T00:49:49;4.50;90.50
48208;DHT22;33997;53.278;9.708;2024-01-30T00:52:15;4.40;90.40
48208;DHT22;33997;53.278;9.708;2024-01-30T00:54:41;4.50;90.50
48208;DHT22;33997;53.278;9.708;2024-01-30T00:57:07;4.50;90.60
48208;DHT22;33997;53.278;9.708;2024-01-30T00:59:32;4.40;90.70
48208;DHT22;33997;53.278;9.708;2024-01-30T01:01:58;4.30;90.70
48208;DHT22;33997;53.278;9.708;2024-01-30T01:04:23;4.20;90.80
48208;DHT22;33997;53.278;9.708;2024-01-30T01:06:49;4.30;90.80
48208;DHT22;33997;53.278;9.708;2024-01-30T01:09:15;4.20;91.00
48208;DHT22;33997;53.278;9.708;2024-01-30T01:11:40;4.30;91.10
48208;DHT22;33997;53.278;9.708;2024-01-30T01:14:06;4.20;91.00
48208;DHT22;33997;53.278;9.708;2024-01-30T01:16:31;4.20;91.10
48208;DHT22;33997;53.278;9.708;2024-01-30T01:18:57;4.10;91.10
48208;DHT22;33997;53.278;9.708;2024-01-30T01:21:22;4.20;91.20
48208;DHT22;33997;53.278;9.708;2024-01-30T01:23:48;4.40;91.20
48208;DHT22;33997;53.278;9.708;2024-01-30T01:26:13;4.30;90.80
48208;DHT22;33997;53.278;9.708;2024-01-30T01:28:40;4.40;90.90
48208;DHT22;33997;53.278;9.708;2024-01-30T01:31:06;4.30;91.00
48208;DHT22;33997;53.278;9.708;2024-01-30T01:33:32;4.30;91.30
48208;DHT22;33997;53.278;9.708;2024-01-30T01:35:59;4.30;91.20
48208;DHT22;33997;53.278;9.708;2024-01-30T01:38:24;4.30;91.00
48208;DHT22;33997;53.278;9.708;2024-01-30T01:40:49;4.30;91.40
48208;DHT22;33997;53.278;9.708;2024-01-30T01:43:16;4.30;91.30
48208;DHT22;33997;53.278;9.708;2024-01-30T01:45:42;4.30;91.30
48208;DHT22;33997;53.278;9.708;2024-01-30T01:48:07;4.30;91.50
48208;DHT22;33997;53.278;9.708;2024-01-30T01:50:34;4.30;91.40
48208;DHT22;33997;53.278;9.708;2024-01-30T01:53:01;4.30;91.50
48208;DHT22;33997;53.278;9.708;2024-01-30T01:55:29;4.40;91.60
48208;DHT22;33997;53.278;9.708;2024-01-30T01:57:55;4.40;91.30
48208;DHT22;33997;53.278;9.708;2024-01-30T02:00:21;4.50;91.40
48208;DHT22;33997;53.278;9.708;2024-01-30T02:02:47;4.40;91.40
48208;DHT22;33997;53.278;9.708;2024-01-30T02:05:14;4.40;91.40
48208;DHT22;33997;53.278;9.708;2024-01-30T02:07:39;4.60;91.60
48208;DHT22;33997;53.278;9.708;2024-01-30T02:10:07;4.60;91.30
48208;DHT22;33997;53.278;9.708;2024-01-30T02:12:33;4.60;91.50
48208;DHT22;33997;53.278;9.708;2024-01-30T02:14:59;4.60;91.40
48208;DHT22;33997;53.278;9.708;2024-01-30T02:17:24;4.60;91.60
48208;DHT22;33997;53.278;9.708;2024-01-30T02:19:50;4.60;91.50
48208;DHT22;33997;53.278;9.708;2024-01-30T02:22:15;4.60;91.50
48208;DHT22;33997;53.278;9.708;2024-01-30T02:24:41;4.70;91.70
48208;DHT22;33997;53.278;9.708;2024-01-30T02:27:06;4.80;91.50
48208;DHT22;33997;53.278;9.708;2024-01-30T02:29:32;4.80;91.40
48208;DHT22;33997;53.278;9.708;2024-01-30T02:31:57;4.80;91.40
48208;DHT22;33997;53.278;9.708;2024-01-30T02:34:24;4.90;91.40
48208;DHT22;33997;53.278;9.708;2024-01-30T02:36:49;4.80;91.50
48208;DHT22;33997;53.278;9.708;2024-01-30T02:39:14;4.80;91.50
48208;DHT22;33997;53.278;9.708;2024-01-30T02:41:40;4.80;91.50
48208;DHT22;33997;53.278;9.708;2024-01-30T02:44:05;4.70;91.60
48208;DHT22;33997;53.278;9.708;2024-01-30T02:46:31;4.70;91.80
48208;DHT22;33997;53.278;9.708;2024-01-30T02:48:57;4.80;92.10
48208;DHT22;33997;53.278;9.708;2024-01-30T02:51:22;4.80;91.90
48208;DHT22;33997;53.278;9.708;2024-01-30T02:53:48;4.80;92.00
48208;DHT22;33997;53.278;9.708;2024-01-30T02:56:13;4.70;92.10
48208;DHT22;33997;53.278;9.708;2024-01-30T02:58:42;4.70;92.20
48208;DHT22;33997;53.278;9.708;2024-01-30T03:01:07;4.80;92.20
48208;DHT22;33997;53.278;9.708;2024-01-30T03:03:33;4.80;92.10
48208;DHT22;33997;53.278;9.708;2024-01-30T03:06:00;4.70;92.10
48208;DHT22;33997;53.278;9.708;2024-01-30T03:08:26;4.70;92.30
48208;DHT22;33997;53.278;9.708;2024-01-30T03:10:51;4.60;92.40
48208;DHT22;33997;53.278;9.708;2024-01-30T03:13:17;4.60;92.60
48208;DHT22;33997;53.278;9.708;2024-01-30T03:15:42;4.60;92.80
48208;DHT22;33997;53.278;9.708;2024-01-30T03:18:08;4.60;93.00
48208;DHT22;33997;53.278;9.708;2024-01-30T03:20:34;4.60;93.20
48208;DHT22;33997;53.278;9.708;2024-01-30T03:23:00;4.60;93.20
48208;DHT22;33997;53.278;9.708;2024-01-30T03:25:25;4.60;93.30
48208;DHT22;33997;53.278;9.708;2024-01-30T03:27:51;4.60;93.20
48208;DHT22;33997;53.278;9.708;2024-01-30T03:30:17;4.60;93.40
48208;DHT22;33997;53.278;9.708;2024-01-30T03:32:42;4.70;93.20
48208;DHT22;33997;53.278;9.708;2024-01-30T03:35:08;4.70;93.10
48208;DHT22;33997;53.278;9.708;2024-01-30T03:37:34;4.70;93.40
48208;DHT22;33997;53.278;9.708;2024-01-30T03:39:59;4.60;93.10
48208;DHT22;33997;53.278;9.708;2024-01-30T03:42:25;4.60;93.30
48208;DHT22;33997;53.278;9.708;2024-01-30T03:44:50;4.70;93.60
48208;DHT22;33997;53.278;9.708;2024-01-30T03:47:20;4.60;93.20
48208;DHT22;33997;53.278;9.708;2024-01-30T03:49:46;4.70;93.70
48208;DHT22;33997;53.278;9.708;2024-01-30T03:52:11;4.60;93.60
48208;DHT22;33997;53.278;9.708;2024-01-30T03:54:37;4.60;93.60
48208;DHT22;33997;53.278;9.708;2024-01-30T03:57:02;4.60;93.80
48208;DHT22;33997;53.278;9.708;2024-01-30T03:59:28;4.50;93.80
48208;DHT22;33997;53.278;9.708;2024-01-30T04:01:54;4.40;94.00
48208;DHT22;33997;53.278;9.708;2024-01-30T04:04:20;4.40;94.20
48208;DHT22;33997;53.278;9.708;2024-01-30T04:06:46;4.40;94.30
48208;DHT22;33997;53.278;9.708;2024-01-30T04:09:12;4.40;94.50
48208;DHT22;33997;53.278;9.708;2024-01-30T04:11:38;4.40;94.40
48208;DHT22;33997;53.278;9.708;2024-01-30T04:14:04;4.40;94.50
48208;DHT22;33997;53.278;9.708;2024-01-30T04:16:30;4.40;94.70
48208;DHT22;33997;53.278;9.708;2024-01-30T04:18:55;4.30;94.50
48208;DHT22;33997;53.278;9.708;2024-01-30T04:21:21;4.30;94.60
48208;DHT22;33997;53.278;9.708;2024-01-30T04:23:47;4.20;94.50
48208;DHT22;33997;53.278;9.708;2024-01-30T04:26:13;4.20;94.70
48208;DHT22;33997;53.278;9.708;2024-01-30T04:28:41;4.20;94.90
48208;DHT22;33997;53.278;9.708;2024-01-30T04:31:07;4.20;94.90
48208;DHT22;33997;53.278;9.708;2024-01-30T04:33:32;4.20;95.10
48208;DHT22;33997;53.278;9.708;2024-01-30T04:35:57;4.20;95.10
48208;DHT22;33997;53.278;9.708;2024-01-30T04:38:23;4.30;95.40
48208;DHT22;33997;53.278;9.708;2024-01-30T04:40:48;4.30;95.20
48208;DHT22;33997;53.278;9.708;2024-01-30T04:43:14;4.30;95.20
48208;DHT22;33997;53.278;9.708;2024-01-30T04:45:41;4.20;95.20
48208;DHT22;33997;53.278;9.708;2024-01-30T04:48:06;4.20;95.50
48208;DHT22;33997;53.278;9.708;2024-01-30T04:50:32;4.20;95.50
48208;DHT22;33997;53.278;9.708;2024-01-30T04:52:57;4.30;95.40
48208;DHT22;33997;53.278;9.708;2024-01-30T04:55:23;4.40;95.60
48208;DHT22;33997;53.278;9.708;2024-01-30T04:57:49;4.40;95.60
48208;DHT22;33997;53.278;9.708;2024-01-30T05:00:14;4.40;95.50
48208;DHT22;33997;53.278;9.708;2024-01-30T05:02:40;4.50;95.60
48208;DHT22;33997;53.278;9.708;2024-01-30T05:05:06;4.60;95.60
48208;DHT22;33997;53.278;9.708;2024-01-30T05:07:31;4.60;95.40
48208;DHT22;33997;53.278;9.708;2024-01-30T05:09:57;4.60;95.30
48208;DHT22;33997;53.278;9.708;2024-01-30T05:12:22;4.60;95.30
48208;DHT22;33997;53.278;9.708;2024-01-30T05:14:47;4.60;95.30
48208;DHT22;33997;53.278;9.708;2024-01-30T05:17:13;4.50;95.40
48208;DHT22;33997;53.278;9.708;2024-01-30T05:19:39;4.40;95.40
48208;DHT22;33997;53.278;9.708;2024-01-30T05:22:04;4.30;95.50
48208;DHT22;33997;53.278;9.708;2024-01-30T05:24:30;4.30;95.80
48208;DHT22;33997;53.278;9.708;2024-01-30T05:26:55;4.30;96.00
48208;DHT22;33997;53.278;9.708;2024-01-30T05:29:20;4.40;96.00
48208;DHT22;33997;53.278;9.708;2024-01-30T05:31:46;4.40;96.00
48208;DHT22;33997;53.278;9.708;2024-01-30T05:34:11;4.30;95.90
48208;DHT22;33997;53.278;9.708;2024-01-30T05:36:37;4.30;96.00
48208;DHT22;33997;53.278;9.708;2024-01-30T05:39:02;4.30;96.10
48208;DHT22;33997;53.278;9.708;2024-01-30T05:41:28;4.50;96.40
48208;DHT22;33997;53.278;9.708;2024-01-30T05:43:53;4.60;96.20
48208;DHT22;33997;53.278;9.708;2024-01-30T05:46:19;4.70;96.20
48208;DHT22;33997;53.278;9.708;2024-01-30T05:48:44;4.70;95.80
48208;DHT22;33997;53.278;9.708;2024-01-30T05:51:10;4.70;95.70
48208;DHT22;33997;53.278;9.708;2024-01-30T05:53:35;4.80;95.80
48208;DHT22;33997;53.278;9.708;2024-01-30T05:56:02;4.80;95.50
48208;DHT22;33997;53.278;9.708;2024-01-30T05:58:27;4.70;95.60
48208;DHT22;33997;53.278;9.708;2024-01-30T06:00:53;4.90;95.70
48208;DHT22;33997;53.278;9.708;2024-01-30T06:03:18;4.80;95.50
48208;DHT22;33997;53.278;9.708;2024-01-30T06:05:44;4.80;95.40
48208;DHT22;33997;53.278;9.708;2024-01-30T06:08:09;4.80;95.40
48208;DHT22;33997;53.278;9.708;2024-01-30T06:10:35;4.80;95.40
48208;DHT22;33997;53.278;9.708;2024-01-30T06:13:00;4.90;95.50
48208;DHT22;33997;53.278;9.708;2024-01-30T06:15:26;4.90;95.40
48208;DHT22;33997;53.278;9.708;2024-01-30T06:17:51;4.90;95.50
48208;DHT22;33997;53.278;9.708;2024-01-30T06:20:17;4.90;95.30
48208;DHT22;33997;53.278;9.708;2024-01-30T06:22:43;4.90;95.40
48208;DHT22;33997;53.278;9.708;2024-01-30T06:25:08;4.90;95.50
48208;DHT22;33997;53.278;9.708;2024-01-30T06:27:34;4.80;95.20
48208;DHT22;33997;53.278;9.708;2024-01-30T06:30:00;4.80;95.30
48208;DHT22;33997;53.278;9.708;2024-01-30T06:32:26;4.70;95.30
48208;DHT22;33997;53.278;9.708;2024-01-30T06:34:53;4.70;95.40
48208;DHT22;33997;53.278;9.708;2024-01-30T06:37:19;4.60;95.50
48208;DHT22;33997;53.278;9.708;2024-01-30T06:39:44;4.60;95.80
48208;DHT22;33997;53.278;9.708;2024-01-30T06:42:10;4.60;95.70
48208;DHT22;33997;53.278;9.708;2024-01-30T06:44:37;4.60;95.70
48208;DHT22;33997;53.278;9.708;2024-01-30T06:47:02;4.60;95.80
48208;DHT22;33997;53.278;9.708;2024-01-30T06:49:28;4.60;95.90
48208;DHT22;33997;53.278;9.708;2024-01-30T06:51:53;4.60;95.80
48208;DHT22;33997;53.278;9.708;2024-01-30T06:54:19;4.50;95.90
48208;DHT22;33997;53.278;9.708;2024-01-30T06:56:44;4.50;96.00
48208;DHT22;33997;53.278;9.708;2024-01-30T06:59:09;4.60;96.20
48208;DHT22;33997;53.278;9.708;2024-01-30T07:01:35;4.50;96.00
48208;DHT22;33997;53.278;9.708;2024-01-30T07:04:00;4.50;96.20
48208;DHT22;33997;53.278;9.708;2024-01-30T07:06:26;4.40;96.20
48208;DHT22;33997;53.278;9.708;2024-01-30T07:08:51;4.60;96.30
48208;DHT22;33997;53.278;9.708;2024-01-30T07:11:20;4.60;96.30
48208;DHT22;33997;53.278;9.708;2024-01-30T07:13:47;4.60;96.30
48208;DHT22;33997;53.278;9.708;2024-01-30T07:16:14;4.50;96.30
48208;DHT22;33997;53.278;9.708;2024-01-30T07:18:39;4.50;96.30
48208;DHT22;33997;53.278;9.708;2024-01-30T07:21:05;4.60;96.50
48208;DHT22;33997;53.278;9.708;2024-01-30T07:23:30;4.60;96.70
48208;DHT22;33997;53.278;9.708;2024-01-30T07:25:55;4.70;96.60
48208;DHT22;33997;53.278;9.708;2024-01-30T07:28:21;4.80;96.30
48208;DHT22;33997;53.278;9.708;2024-01-30T07:30:46;4.80;96.20
48208;DHT22;33997;53.278;9.708;2024-01-30T07:33:13;4.90;96.20
48208;DHT22;33997;53.278;9.708;2024-01-30T07:35:39;4.90;96.00
48208;DHT22;33997;53.278;9.708;2024-01-30T07:38:04;4.90;95.90
48208;DHT22;33997;53.278;9.708;2024-01-30T07:40:29;4.90;95.80
48208;DHT22;33997;53.278;9.708;2024-01-30T07:42:55;4.80;95.90
48208;DHT22;33997;53.278;9.708;2024-01-30T07:45:20;4.90;95.80
48208;DHT22;33997;53.278;9.708;2024-01-30T07:47:50;5.00;95.70
48208;DHT22;33997;53.278;9.708;2024-01-30T07:50:17;5.00;95.90
48208;DHT22;33997;53.278;9.708;2024-01-30T07:52:45;5.10;95.50
48208;DHT22;33997;53.278;9.708;2024-01-30T07:55:11;5.10;95.40
48208;DHT22;33997;53.278;9.708;2024-01-30T07:57:38;5.10;95.30
48208;DHT22;33997;53.278;9.708;2024-01-30T08:00:05;5.30;95.40
48208;DHT22;33997;53.278;9.708;2024-01-30T08:02:32;5.30;95.30
48208;DHT22;33997;53.278;9.708;2024-01-30T08:04:58;5.30;95.00
48208;DHT22;33997;53.278;9.708;2024-01-30T08:07:23;5.30;95.00
48208;DHT22;33997;53.278;9.708;2024-01-30T08:09:49;5.40;94.90
48208;DHT22;33997;53.278;9.708;2024-01-30T08:12:14;5.50;94.90
48208;DHT22;33997;53.278;9.708;2024-01-30T08:14:40;5.50;94.80
48208;DHT22;33997;53.278;9.708;2024-01-30T08:17:06;5.60;94.50
48208;DHT22;33997;53.278;9.708;2024-01-30T08:19:33;5.60;94.30
48208;DHT22;33997;53.278;9.708;2024-01-30T08:21:58;5.60;94.30
48208;DHT22;33997;53.278;9.708;2024-01-30T08:24:24;5.60;94.40
48208;DHT22;33997;53.278;9.708;2024-01-30T08:26:49;5.60;94.20
48208;DHT22;33997;53.278;9.708;2024-01-30T08:29:14;5.70;94.10
48208;DHT22;33997;53.278;9.708;2024-01-30T08:31:40;5.80;94.00
48208;DHT22;33997;53.278;9.708;2024-01-30T08:34:05;5.80;93.90
48208;DHT22;33997;53.278;9.708;2024-01-30T08:36:31;5.90;93.80
48208;DHT22;33997;53.278;9.708;2024-01-30T08:38:56;6.00;93.70
48208;DHT22;33997;53.278;9.708;2024-01-30T08:41:22;6.00;93.70
48208;DHT22;33997;53.278;9.708;2024-01-30T08:43:47;6.10;93.20
48208;DHT22;33997;53.278;9.708;2024-01-30T08:46:13;6.20;92.90
48208;DHT22;33997;53.278;9.708;2024-01-30T08:48:38;6.30;93.00
48208;DHT22;33997;53.278;9.708;2024-01-30T08:51:04;6.30;92.80
48208;DHT22;33997;53.278;9.708;2024-01-30T08:53:33;6.40;92.70
48208;DHT22;33997;53.278;9.708;2024-01-30T08:55:59;6.50;92.40
48208;DHT22;33997;53.278;9.708;2024-01-30T08:58:24;6.50;92.30
48208;DHT22;33997;53.278;9.708;2024-01-30T09:00:50;6.60;92.20
48208;DHT22;33997;53.278;9.708;2024-01-30T09:03:17;6.70;92.00
48208;DHT22;33997;53.278;9.708;2024-01-30T09:05:42;6.70;91.80
48208;DHT22;33997;53.278;9.708;2024-01-30T09:08:07;6.80;91.70
48208;DHT22;33997;53.278;9.708;2024-01-30T09:10:33;6.80;91.70
48208;DHT22;33997;53.278;9.708;2024-01-30T09:12:58;6.80;91.50
48208;DHT22;33997;53.278;9.708;2024-01-30T09:15:24;6.80;91.50
48208;DHT22;33997;53.278;9.708;2024-01-30T09:17:49;6.90;91.50
48208;DHT22;33997;53.278;9.708;2024-01-30T09:20:15;6.90;91.50
48208;DHT22;33997;53.278;9.708;2024-01-30T09:22:41;7.00;91.30
48208;DHT22;33997;53.278;9.708;2024-01-30T09:25:07;7.00;91.00
48208;DHT22;33997;53.278;9.708;2024-01-30T09:27:32;7.10;90.90
48208;DHT22;33997;53.278;9.708;2024-01-30T09:29:57;7.10;90.90
48208;DHT22;33997;53.278;9.708;2024-01-30T09:32:23;7.10;90.50
48208;DHT22;33997;53.278;9.708;2024-01-30T09:34:48;7.20;90.60
48208;DHT22;33997;53.278;9.708;2024-01-30T09:37:14;7.30;90.40
48208;DHT22;33997;53.278;9.708;2024-01-30T09:39:41;7.30;90.40
48208;DHT22;33997;53.278;9.708;2024-01-30T09:42:11;7.30;90.20
48208;DHT22;33997;53.278;9.708;2024-01-30T09:44:39;7.40;90.00
48208;DHT22;33997;53.278;9.708;2024-01-30T09:47:08;7.50;90.00
48208;DHT22;33997;53.278;9.708;2024-01-30T09:49:34;7.50;89.40
48208;DHT22;33997;53.278;9.708;2024-01-30T09:52:02;7.50;89.40
48208;DHT22;33997;53.278;9.708;2024-01-30T09:54:30;7.60;89.40
48208;DHT22;33997;53.278;9.708;2024-01-30T09:56:56;7.60;89.40
48208;DHT22;33997;53.278;9.708;2024-01-30T09:59:22;7.60;89.50
48208;DHT22;33997;53.278;9.708;2024-01-30T10:01:47;7.70;89.30
48208;DHT22;33997;53.278;9.708;2024-01-30T10:04:13;7.60;89.00
48208;DHT22;33997;53.278;9.708;2024-01-30T10:06:40;7.80;89.40
48208;DHT22;33997;53.278;9.708;2024-01-30T10:09:05;7.70;88.70
48208;DHT22;33997;53.278;9.708;2024-01-30T10:11:31;7.80;88.70
48208;DHT22;33997;53.278;9.708;2024-01-30T10:13:56;7.90;88.90
48208;DHT22;33997;53.278;9.708;2024-01-30T10:16:22;7.90;88.50
48208;DHT22;33997;53.278;9.708;2024-01-30T10:18:47;8.00;88.50
48208;DHT22;33997;53.278;9.708;2024-01-30T10:21:13;8.00;88.30
48208;DHT22;33997;53.278;9.708;2024-01-30T10:23:38;8.10;88.40
48208;DHT22;33997;53.278;9.708;2024-01-30T10:26:04;8.10;88.50
48208;DHT22;33997;53.278;9.708;2024-01-30T10:28:30;8.10;88.50
48208;DHT22;33997;53.278;9.708;2024-01-30T10:30:59;8.10;88.20
48208;DHT22;33997;53.278;9.708;2024-01-30T10:33:26;8.10;88.10
48208;DHT22;33997;53.278;9.708;2024-01-30T10:36:05;8.10;88.10
48208;DHT22;33997;53.278;9.708;2024-01-30T10:38:32;8.10;88.10
48208;DHT22;33997;53.278;9.708;2024-01-30T10:40:59;8.10;88.40
48208;DHT22;33997;53.278;9.708;2024-01-30T10:43:35;8.10;88.00
48208;DHT22;33997;53.278;9.708;2024-01-30T10:46:26;8.20;88.10
48208;DHT22;33997;53.278;9.708;2024-01-30T10:48:58;8.10;88.10
48208;DHT22;33997;53.278;9.708;2024-01-30T10:51:28;8.20;88.10
48208;DHT22;33997;53.278;9.708;2024-01-30T10:53:55;8.20;88.00
48208;DHT22;33997;53.278;9.708;2024-01-30T10:56:21;8.30;88.00
48208;DHT22;33997;53.278;9.708;2024-01-30T10:58:52;8.30;88.00
48208;DHT22;33997;53.278;9.708;2024-01-30T11:01:19;8.30;87.50
48208;DHT22;33997;53.278;9.708;2024-01-30T11:03:45;8.30;87.90
48208;DHT22;33997;53.278;9.708;2024-01-30T11:06:11;8.30;87.90
48208;DHT22;33997;53.278;9.708;2024-01-30T11:08:44;8.30;88.00
48208;DHT22;33997;53.278;9.708;2024-01-30T11:11:10;8.30;87.80
48208;DHT22;33997;53.278;9.708;2024-01-30T11:13:36;8.30;87.80
48208;DHT22;33997;53.278;9.708;2024-01-30T11:16:02;8.30;87.80
48208;DHT22;33997;53.278;9.708;2024-01-30T11:18:32;8.40;88.20
48208;DHT22;33997;53.278;9.708;2024-01-30T11:20:59;8.40;87.80
48208;DHT22;33997;53.278;9.708;2024-01-30T11:23:27;8.40;88.00
48208;DHT22;33997;53.278;9.708;2024-01-30T11:25:53;8.40;88.20
48208;DHT22;33997;53.278;9.708;2024-01-30T11:28:21;8.40;88.00
48208;DHT22;33997;53.278;9.708;2024-01-30T11:30:46;8.30;87.90
48208;DHT22;33997;53.278;9.708;2024-01-30T11:33:14;8.40;88.20
48208;DHT22;33997;53.278;9.708;2024-01-30T11:35:44;8.50;88.30
48208;DHT22;33997;53.278;9.708;2024-01-30T11:38:14;8.50;87.80
48208;DHT22;33997;53.278;9.708;2024-01-30T11:40:40;8.60;87.90
48208;DHT22;33997;53.278;9.708;2024-01-30T11:43:07;8.70;88.00
48208;DHT22;33997;53.278;9.708;2024-01-30T11:45:34;8.70;88.00
48208;DHT22;33997;53.278;9.708;2024-01-30T11:48:00;8.80;87.70
48208;DHT22;33997;53.278;9.708;2024-01-30T11:50:26;9.00;87.50
48208;DHT22;33997;53.278;9.708;2024-01-30T11:52:53;8.90;87.50
48208;DHT22;33997;53.278;9.708;2024-01-30T11:55:19;9.00;87.50
48208;DHT22;33997;53.278;9.708;2024-01-30T11:57:45;9.00;87.30
48208;DHT22;33997;53.278;9.708;2024-01-30T12:00:15;9.00;87.10
48208;DHT22;33997;53.278;9.708;2024-01-30T12:02:41;9.00;87.20
48208;DHT22;33997;53.278;9.708;2024-01-30T12:05:07;9.10;87.20
48208;DHT22;33997;53.278;9.708;2024-01-30T12:07:33;9.10;87.30
48208;DHT22;33997;53.278;9.708;2024-01-30T12:09:59;9.10;87.50
48208;DHT22;33997;53.278;9.708;2024-01-30T12:12:25;9.20;87.50
48208;DHT22;33997;53.278;9.708;2024-01-30T12:14:51;9.20;87.30
48208;DHT22;33997;53.278;9.708;2024-01-30T12:17:28;9.20;87.20
48208;DHT22;33997;53.278;9.708;2024-01-30T12:25:12;9.30;87.20
48208;DHT22;33997;53.278;9.708;2024-01-30T12:27:38;9.40;87.00
48208;DHT22;33997;53.278;9.708;2024-01-30T12:30:06;9.40;87.20
48208;DHT22;33997;53.278;9.708;2024-01-30T12:32:35;9.40;87.10
48208;DHT22;33997;53.278;9.708;2024-01-30T12:35:01;9.40;87.40
48208;DHT22;33997;53.278;9.708;2024-01-30T12:37:27;9.40;87.40
48208;DHT22;33997;53.278;9.708;2024-01-30T12:39:52;9.50;87.50
48208;DHT22;33997;53.278;9.708;2024-01-30T12:42:20;9.40;87.60
48208;DHT22;33997;53.278;9.708;2024-01-30T12:44:47;9.50;87.40
48208;DHT22;33997;53.278;9.708;2024-01-30T12:47:12;9.40;87.80
48208;DHT22;33997;53.278;9.708;2024-01-30T12:49:38;9.40;87.40
48208;DHT22;33997;53.278;9.708;2024-01-30T12:52:03;9.40;87.60
48208;DHT22;33997;53.278;9.708;2024-01-30T12:54:29;9.30;88.00
48208;DHT22;33997;53.278;9.708;2024-01-30T12:56:54;9.40;87.80
48208;DHT22;33997;53.278;9.708;2024-01-30T12:59:21;9.30;88.00
48208;DHT22;33997;53.278;9.708;2024-01-30T13:01:46;9.30;88.20
48208;DHT22;33997;53.278;9.708;2024-01-30T13:04:12;9.30;88.30
48208;DHT22;33997;53.278;9.708;2024-01-30T13:06:37;9.30;88.30
48208;DHT22;33997;53.278;9.708;2024-01-30T13:09:03;9.20;88.20
48208;DHT22;33997;53.278;9.708;2024-01-30T13:11:28;9.20;88.40
48208;DHT22;33997;53.278;9.708;2024-01-30T13:13:54;9.30;88.40
48208;DHT22;33997;53.278;9.708;2024-01-30T13:16:19;9.20;88.40
48208;DHT22;33997;53.278;9.708;2024-01-30T13:18:45;9.20;88.60
48208;DHT22;33997;53.278;9.708;2024-01-30T13:21:10;9.20;88.80
48208;DHT22;33997;53.278;9.708;2024-01-30T13:23:36;9.20;88.60
48208;DHT22;33997;53.278;9.708;2024-01-30T13:26:01;9.20;88.60
48208;DHT22;33997;53.278;9.708;2024-01-30T13:28:27;9.20;88.80
48208;DHT22;33997;53.278;9.708;2024-01-30T13:30:53;9.20;88.90
48208;DHT22;33997;53.278;9.708;2024-01-30T13:33:18;9.20;88.80
48208;DHT22;33997;53.278;9.708;2024-01-30T13:35:44;9.30;88.90
48208;DHT22;33997;53.278;9.708;2024-01-30T13:38:09;9.30;88.90
48208;DHT22;33997;53.278;9.708;2024-01-30T13:40:35;9.30;88.90
48208;DHT22;33997;53.278;9.708;2024-01-30T13:43:01;9.20;88.90
48208;DHT22;33997;53.278;9.708;2024-01-30T13:45:27;9.30;88.80
48208;DHT22;33997;53.278;9.708;2024-01-30T13:47:52;9.30;88.90
48208;DHT22;33997;53.278;9.708;2024-01-30T13:50:18;9.30;88.90
48208;DHT22;33997;53.278;9.708;2024-01-30T13:52:43;9.30;88.60
48208;DHT22;33997;53.278;9.708;2024-01-30T13:55:09;9.30;88.80
48208;DHT22;33997;53.278;9.708;2024-01-30T13:57:36;9.30;89.00
48208;DHT22;33997;53.278;9.708;2024-01-30T14:00:03;9.30;89.10
48208;DHT22;33997;53.278;9.708;2024-01-30T14:02:30;9.20;89.30
48208;DHT22;33997;53.278;9.708;2024-01-30T14:04:56;9.20;89.30
48208;DHT22;33997;53.278;9.708;2024-01-30T14:07:21;9.20;89.50
48208;DHT22;33997;53.278;9.708;2024-01-30T14:09:48;9.20;89.40
48208;DHT22;33997;53.278;9.708;2024-01-30T14:12:13;9.20;89.40
48208;DHT22;33997;53.278;9.708;2024-01-30T14:14:40;9.20;89.50
48208;DHT22;33997;53.278;9.708;2024-01-30T14:17:06;9.20;89.40
48208;DHT22;33997;53.278;9.708;2024-01-30T14:19:33;9.30;89.40
48208;DHT22;33997;53.278;9.708;2024-01-30T14:21:58;9.30;89.30
48208;DHT22;33997;53.278;9.708;2024-01-30T14:24:23;9.30;89.60
48208;DHT22;33997;53.278;9.708;2024-01-30T14:26:49;9.30;89.50
48208;DHT22;33997;53.278;9.708;2024-01-30T14:29:15;9.30;89.70
48208;DHT22;33997;53.278;9.708;2024-01-30T14:31:40;9.30;89.70
48208;DHT22;33997;53.278;9.708;2024-01-30T14:34:06;9.30;89.80
48208;DHT22;33997;53.278;9.708;2024-01-30T14:36:31;9.30;89.90
48208;DHT22;33997;53.278;9.708;2024-01-30T14:38:57;9.30;90.00
48208;DHT22;33997;53.278;9.708;2024-01-30T14:41:22;9.30;89.90
48208;DHT22;33997;53.278;9.708;2024-01-30T14:43:48;9.30;89.90
48208;DHT22;33997;53.278;9.708;2024-01-30T14:46:14;9.30;90.00
48208;DHT22;33997;53.278;9.708;2024-01-30T14:48:40;9.30;90.00
48208;DHT22;33997;53.278;9.708;2024-01-30T14:51:05;9.30;90.10
48208;DHT22;33997;53.278;9.708;2024-01-30T14:53:31;9.30;90.10
48208;DHT22;33997;53.278;9.708;2024-01-30T14:55:56;9.30;90.40
48208;DHT22;33997;53.278;9.708;2024-01-30T14:58:22;9.30;90.10
48208;DHT22;33997;53.278;9.708;2024-01-30T15:00:47;9.30;90.20
48208;DHT22;33997;53.278;9.708;2024-01-30T15:03:13;9.30;90.50
48208;DHT22;33997;53.278;9.708;2024-01-30T15:05:38;9.30;90.40
48208;DHT22;33997;53.278;9.708;2024-01-30T15:08:04;9.40;90.30
48208;DHT22;33997;53.278;9.708;2024-01-30T15:10:30;9.40;90.40
48208;DHT22;33997;53.278;9.708;2024-01-30T15:12:55;9.40;90.40
48208;DHT22;33997;53.278;9.708;2024-01-30T15:15:20;9.40;90.60
48208;DHT22;33997;53.278;9.708;2024-01-30T15:17:46;9.40;90.70
48208;DHT22;33997;53.278;9.708;2024-01-30T15:20:12;9.40;90.70
48208;DHT22;33997;53.278;9.708;2024-01-30T15:22:37;9.40;90.90
48208;DHT22;33997;53.278;9.708;2024-01-30T15:25:05;9.40;90.80
48208;DHT22;33997;53.278;9.708;2024-01-30T15:27:31;9.40;91.00
48208;DHT22;33997;53.278;9.708;2024-01-30T15:29:57;9.50;91.10
48208;DHT22;33997;53.278;9.708;2024-01-30T15:32:22;9.50;91.20
48208;DHT22;33997;53.278;9.708;2024-01-30T15:34:47;9.50;91.20
48208;DHT22;33997;53.278;9.708;2024-01-30T15:37:13;9.50;91.10
48208;DHT22;33997;53.278;9.708;2024-01-30T15:39:39;9.50;91.20
48208;DHT22;33997;53.278;9.708;2024-01-30T15:42:05;9.60;91.20